Holton, Michigan
Current Conditions -  °F | °C
As of 7:13 PM on Wednesday 22 Oct 2014 (Local Time) from KFFX Reporting Station
Clear Clear  
Wind Chill: 44°   Ceiling: Unl
Heat Index: 44°   Visibility: 10mi
Dew Point: 30°   Wind: 0mph
Humidity: 59%   Direction: NA
Pressure: 30.28"   Gusts: NA
Location:  43.41°N, 86.08°W
Report Text: KFFX 222313Z AUTO 00000KT 10SM CLR 06/M01 A3028 RMK AO2 T00641011
Loading
Personal Weather Stations






























Interactive Weather Map New forecast layout! Learn more

10-Day Weather Forecast

Advertisements
Track Severe Weather on mobile